Time;durP1;ratioP1;P1;durP2;ratioP2;P2;SDS_P1;SDS_P2;PMS_P1;PMS_P2;Temp;Humidity;BMP_temperature;BMP_pressure;BME280_temperature;BME280_humidity;BME280_pressure;Samples;Min_cycle;Max_cycle;Signal;HPM_P1;HPM_P2
2024/02/03 00:01:39;;;;;;;4.88;4.38;;;10.80;99.90;;;;;;4266299;27;20043;-63
2024/02/03 00:03:43;;;;;;;5.65;4.40;;;10.80;99.90;;;;;;4265723;27;20046;-64
2024/02/03 00:05:45;;;;;;;10.32;4.35;;;10.90;99.90;;;;;;4265975;27;20409;-64
2024/02/03 00:07:47;;;;;;;5.80;4.63;;;10.90;99.90;;;;;;4265883;27;20035;-65
2024/02/03 00:09:49;;;;;;;5.72;4.45;;;10.80;99.90;;;;;;4267442;27;20051;-64
2024/02/03 00:11:51;;;;;;;5.63;4.25;;;10.80;99.90;;;;;;4266805;27;20050;-64
2024/02/03 00:13:54;;;;;;;8.35;4.53;;;10.90;99.90;;;;;;4267390;27;20042;-68
2024/02/03 00:15:56;;;;;;;4.82;3.55;;;10.90;99.90;;;;;;4266980;27;20054;-64
2024/02/03 00:17:58;;;;;;;4.68;3.88;;;10.90;99.90;;;;;;4266385;27;20046;-65
2024/02/03 00:20:02;;;;;;;5.68;4.10;;;10.90;99.90;;;;;;4266320;27;20046;-65
2024/02/03 00:22:04;;;;;;;5.67;4.03;;;11.00;99.90;;;;;;4247430;27;20047;-64
2024/02/03 00:24:06;;;;;;;4.82;3.10;;;11.00;99.90;;;;;;4265932;27;20046;-65
2024/02/03 00:26:09;;;;;;;7.15;3.97;;;11.00;99.90;;;;;;4266018;27;20039;-64
2024/02/03 00:28:11;;;;;;;5.65;3.78;;;11.00;99.90;;;;;;4265832;27;20062;-64
2024/02/03 00:30:13;;;;;;;4.00;3.60;;;11.00;99.90;;;;;;4266868;27;20099;-66
2024/02/03 00:32:15;;;;;;;4.45;3.70;;;11.00;99.90;;;;;;4267443;27;20489;-65
2024/02/03 00:34:18;;;;;;;9.32;3.67;;;11.10;99.90;;;;;;4267984;27;20401;-69
2024/02/03 00:36:22;;;;;;;3.70;3.38;;;11.10;99.90;;;;;;4247713;27;20047;-64
2024/02/03 00:38:24;;;;;;;4.10;3.40;;;11.00;99.90;;;;;;4265140;27;20039;-65
2024/02/03 00:40:26;;;;;;;4.18;3.45;;;11.10;99.90;;;;;;4265213;27;20050;-64
2024/02/03 00:42:28;;;;;;;4.68;3.75;;;11.00;99.90;;;;;;4265313;27;20436;-64
2024/02/03 00:44:30;;;;;;;4.28;3.17;;;11.10;99.90;;;;;;4246808;27;20043;-64
2024/02/03 00:46:32;;;;;;;4.80;3.30;;;11.00;99.90;;;;;;4264944;27;20070;-64
2024/02/03 00:48:35;;;;;;;4.85;3.28;;;11.00;99.90;;;;;;4265260;27;20083;-64
2024/02/03 00:50:37;;;;;;;4.55;3.45;;;11.10;99.90;;;;;;4265189;27;20441;-64
2024/02/03 00:52:41;;;;;;;5.15;3.78;;;11.00;99.90;;;;;;4265050;27;20063;-64
2024/02/03 00:54:43;;;;;;;4.07;3.08;;;11.00;99.90;;;;;;4264947;27;20045;-63
2024/02/03 00:56:46;;;;;;;4.93;3.40;;;11.00;99.90;;;;;;4265029;27;20065;-64
2024/02/03 00:58:48;;;;;;;5.53;3.47;;;11.00;99.90;;;;;;4265346;27;20043;-64
2024/02/03 01:00:50;;;;;;;3.83;3.08;;;11.10;99.90;;;;;;4265367;27;20043;-64
2024/02/03 01:02:52;;;;;;;4.90;2.90;;;11.10;99.90;;;;;;4264857;27;20057;-65
2024/02/03 01:04:54;;;;;;;4.20;3.45;;;11.10;99.90;;;;;;4265486;27;20070;-64
2024/02/03 01:06:58;;;;;;;5.43;3.75;;;11.10;99.90;;;;;;4247610;27;20046;-64
2024/02/03 01:09:02;;;;;;;4.60;3.17;;;11.10;99.90;;;;;;4266630;27;20057;-66
2024/02/03 01:11:04;;;;;;;4.88;3.25;;;11.10;99.90;;;;;;4267116;27;20073;-71
2024/02/03 01:13:08;;;;;;;3.10;2.50;;;11.20;99.90;;;;;;4247537;27;20142;-64
2024/02/03 01:15:11;;;;;;;3.65;3.13;;;11.20;99.90;;;;;;4246484;27;20047;-64
2024/02/03 01:17:13;;;;;;;3.80;2.88;;;11.20;99.90;;;;;;4264603;27;20122;-64
2024/02/03 01:19:15;;;;;;;5.35;2.85;;;11.30;99.90;;;;;;4264877;27;20067;-62
2024/02/03 01:21:20;;;;;;;3.90;2.88;;;11.30;99.90;;;;;;4265026;27;20057;-61
2024/02/03 01:23:22;;;;;;;4.25;2.78;;;11.20;99.90;;;;;;4264811;27;20043;-61
2024/02/03 01:25:25;;;;;;;4.28;3.03;;;11.20;99.90;;;;;;4265906;27;20103;-62
2024/02/03 01:27:28;;;;;;;4.80;3.22;;;11.20;99.90;;;;;;4265705;27;20503;-62
2024/02/03 01:29:30;;;;;;;6.72;2.92;;;11.20;99.90;;;;;;4264647;27;20043;-64
2024/02/03 01:31:32;;;;;;;4.93;2.80;;;11.20;99.90;;;;;;4264337;27;20134;-61
2024/02/03 01:33:34;;;;;;;5.03;2.95;;;11.20;99.90;;;;;;4264714;27;20047;-61
2024/02/03 01:35:36;;;;;;;4.55;2.88;;;11.20;99.90;;;;;;4264883;27;20074;-64
2024/02/03 01:37:39;;;;;;;7.65;3.20;;;11.20;99.90;;;;;;4264945;27;20165;-64
2024/02/03 01:39:41;;;;;;;6.63;3.72;;;11.20;99.90;;;;;;4264877;27;20540;-64
2024/02/03 01:41:45;;;;;;;6.95;4.43;;;11.20;99.90;;;;;;4264895;27;20051;-65
2024/02/03 01:43:47;;;;;;;6.47;2.50;;;11.20;99.90;;;;;;4264953;27;20478;-62
2024/02/03 01:45:50;;;;;;;5.10;3.05;;;11.30;99.90;;;;;;4264431;27;20039;-64
2024/02/03 01:47:53;;;;;;;6.30;2.70;;;11.30;99.90;;;;;;4264742;27;20473;-64
2024/02/03 01:49:55;;;;;;;4.65;2.90;;;11.30;99.90;;;;;;4264652;27;20043;-63
2024/02/03 01:51:58;;;;;;;5.53;2.72;;;11.30;99.90;;;;;;4264591;27;20133;-64
2024/02/03 01:54:00;;;;;;;6.03;2.75;;;11.30;99.90;;;;;;4264437;27;20046;-62
2024/02/03 01:56:03;;;;;;;5.97;3.22;;;11.20;99.90;;;;;;4264564;27;20070;-63
2024/02/03 01:58:07;;;;;;;6.55;3.08;;;11.30;99.90;;;;;;4264500;27;20078;-64
2024/02/03 02:00:11;;;;;;;5.10;2.70;;;11.20;99.90;;;;;;4264237;27;20043;-63
2024/02/03 02:02:13;;;;;;;6.30;2.43;;;11.30;99.90;;;;;;4265010;27;20061;-63
2024/02/03 02:04:15;;;;;;;4.63;2.50;;;11.40;99.90;;;;;;4264490;27;20450;-64
2024/02/03 02:06:18;;;;;;;4.50;2.95;;;11.30;99.90;;;;;;4264701;27;20043;-64
2024/02/03 02:08:31;;;;;;;4.80;2.80;;;11.40;99.90;;;;;;4267161;27;20046;-63
2024/02/03 02:10:33;;;;;;;3.92;2.40;;;11.40;99.90;;;;;;4267854;27;20409;-64
2024/02/03 02:12:35;;;;;;;4.45;2.58;;;11.40;99.90;;;;;;4267958;27;20045;-66
2024/02/03 02:14:39;;;;;;;3.15;2.30;;;11.40;99.90;;;;;;4267282;27;20119;-65
2024/02/03 02:16:41;;;;;;;7.85;2.40;;;11.50;99.90;;;;;;4268278;27;20434;-65
2024/02/03 02:18:43;;;;;;;6.13;2.70;;;11.50;99.90;;;;;;4267821;27;20114;-66
2024/02/03 02:20:46;;;;;;;7.53;2.42;;;11.50;99.90;;;;;;4268310;27;20126;-70
2024/02/03 02:22:48;;;;;;;4.68;2.65;;;11.60;99.90;;;;;;4268654;27;20050;-66
2024/02/03 02:24:50;;;;;;;6.07;2.70;;;11.50;99.90;;;;;;4268870;27;20047;-67
2024/02/03 02:26:53;;;;;;;3.53;2.35;;;11.50;99.90;;;;;;4268214;27;20117;-68
2024/02/03 02:28:55;;;;;;;5.60;2.30;;;11.50;99.90;;;;;;4267718;27;20393;-66
2024/02/03 02:30:57;;;;;;;4.50;2.10;;;11.50;99.90;;;;;;4267800;27;20050;-66
2024/02/03 02:33:00;;;;;;;5.45;2.30;;;11.50;99.90;;;;;;4267573;27;20042;-66
2024/02/03 02:35:02;;;;;;;5.07;2.20;;;11.50;99.90;;;;;;4267668;27;20053;-66
2024/02/03 02:37:05;;;;;;;6.57;2.42;;;11.60;99.90;;;;;;4267311;27;20043;-66
2024/02/03 02:39:09;;;;;;;7.95;2.42;;;11.60;99.90;;;;;;4267280;27;20066;-66
2024/02/03 02:41:11;;;;;;;5.75;2.20;;;11.50;99.90;;;;;;4267217;27;20046;-66
2024/02/03 02:43:14;;;;;;;5.07;2.10;;;11.50;99.90;;;;;;4266838;27;20413;-65
2024/02/03 02:45:17;;;;;;;6.47;2.70;;;11.50;99.90;;;;;;4267444;27;20054;-66
2024/02/03 02:47:19;;;;;;;6.18;2.25;;;11.50;99.90;;;;;;4267336;27;20409;-65
2024/02/03 02:49:21;;;;;;;6.90;2.28;;;11.60;99.90;;;;;;4266984;27;20053;-66
2024/02/03 02:51:23;;;;;;;8.10;2.40;;;11.60;99.90;;;;;;4267093;27;20050;-66
2024/02/03 02:53:27;;;;;;;8.18;2.58;;;11.70;99.90;;;;;;4248632;27;20205;-65
2024/02/03 02:55:29;;;;;;;6.05;2.05;;;11.70;99.90;;;;;;4267068;27;20057;-66
2024/02/03 02:57:31;;;;;;;9.07;2.65;;;11.70;99.90;;;;;;4266980;27;20066;-66
2024/02/03 02:59:34;;;;;;;7.53;2.22;;;11.70;99.90;;;;;;4267536;27;20047;-67
2024/02/03 03:01:36;;;;;;;8.63;2.25;;;11.60;99.90;;;;;;4268140;27;20074;-69
2024/02/03 03:03:38;;;;;;;10.07;2.33;;;11.70;99.90;;;;;;4267203;27;20070;-66
2024/02/03 03:05:40;;;;;;;8.43;2.63;;;11.80;99.90;;;;;;4266834;27;20532;-66
2024/02/03 03:07:43;;;;;;;8.98;2.15;;;11.70;99.90;;;;;;4267029;27;20049;-65
2024/02/03 03:09:47;;;;;;;4.72;2.22;;;11.70;99.90;;;;;;4266944;27;20046;-66
2024/02/03 03:11:49;;;;;;;8.27;2.97;;;11.70;99.90;;;;;;4266371;27;20508;-66
2024/02/03 03:13:51;;;;;;;8.77;2.95;;;11.80;99.90;;;;;;4266243;27;20042;-66
2024/02/03 03:15:53;;;;;;;12.07;2.75;;;11.80;99.90;;;;;;4266905;27;20046;-65
2024/02/03 03:17:55;;;;;;;6.07;2.10;;;11.70;99.90;;;;;;4266552;27;20047;-67
2024/02/03 03:19:58;;;;;;;8.25;2.63;;;11.80;99.90;;;;;;4266749;27;20070;-66
2024/02/03 03:22:00;;;;;;;9.70;2.67;;;11.80;99.90;;;;;;4266611;27;20050;-66
2024/02/03 03:24:02;;;;;;;9.20;2.33;;;11.70;99.90;;;;;;4266743;27;20047;-66
2024/02/03 03:26:06;;;;;;;10.65;2.88;;;11.70;99.90;;;;;;4266315;27;20043;-67
2024/02/03 03:28:08;;;;;;;6.22;2.60;;;11.70;99.90;;;;;;4266972;27;20413;-65
2024/02/03 03:30:10;;;;;;;10.07;2.30;;;11.70;99.90;;;;;;4266407;27;20050;-64
2024/02/03 03:32:12;;;;;;;7.97;2.58;;;11.60;99.90;;;;;;4266647;27;20045;-63
2024/02/03 03:34:15;;;;;;;10.32;2.28;;;11.70;99.90;;;;;;4266605;27;20060;-63
2024/02/03 03:36:17;;;;;;;10.48;3.10;;;11.80;99.90;;;;;;4259944;27;20414;-64
2024/02/03 03:38:19;;;;;;;8.18;2.15;;;11.80;99.90;;;;;;4249031;27;20122;-63
2024/02/03 03:40:21;;;;;;;11.98;3.05;;;11.80;99.90;;;;;;4249235;27;20057;-64
2024/02/03 03:42:25;;;;;;;7.93;2.45;;;11.80;99.90;;;;;;4249352;27;20054;-64
2024/02/03 03:44:27;;;;;;;8.13;2.17;;;11.70;99.90;;;;;;4249180;27;20212;-63
2024/02/03 03:46:29;;;;;;;10.23;2.35;;;11.70;99.90;;;;;;4249268;27;20050;-65
2024/02/03 03:48:32;;;;;;;8.25;2.78;;;11.80;99.90;;;;;;4253946;27;20504;-65
2024/02/03 03:50:34;;;;;;;10.18;2.50;;;11.80;99.90;;;;;;4266183;27;20155;-65
2024/02/03 03:52:36;;;;;;;16.20;2.22;;;11.80;99.90;;;;;;4266011;27;20046;-66
2024/02/03 03:54:38;;;;;;;10.20;2.30;;;11.80;99.90;;;;;;4266025;27;20081;-65
2024/02/03 03:56:40;;;;;;;8.77;2.72;;;11.70;99.90;;;;;;4265699;27;20071;-66
2024/02/03 03:58:44;;;;;;;10.95;2.70;;;11.80;99.90;;;;;;4265875;27;20084;-66
2024/02/03 04:00:45;;;;;;;11.10;2.63;;;11.80;99.90;;;;;;4266310;27;20481;-67
2024/02/03 04:02:48;;;;;;;8.85;3.13;;;11.80;99.90;;;;;;4266029;27;20099;-66
2024/02/03 04:04:50;;;;;;;13.45;3.78;;;11.80;99.90;;;;;;4266395;27;20042;-69
2024/02/03 04:06:52;;;;;;;10.30;2.53;;;11.80;99.90;;;;;;4267069;27;20043;-70
2024/02/03 04:08:54;;;;;;;12.20;2.53;;;11.70;99.90;;;;;;4266650;27;20464;-71
2024/02/03 04:10:56;;;;;;;12.85;2.50;;;11.70;99.90;;;;;;4266491;27;20046;-66
2024/02/03 04:12:59;;;;;;;15.30;2.70;;;11.70;99.90;;;;;;4266172;27;20051;-66
2024/02/03 04:15:02;;;;;;;7.07;1.98;;;11.80;99.90;;;;;;4265891;27;20390;-66
2024/02/03 04:17:04;;;;;;;7.80;2.25;;;11.80;99.90;;;;;;4265843;27;20054;-65
2024/02/03 04:19:06;;;;;;;13.45;2.45;;;11.80;99.90;;;;;;4246991;27;20125;-65
2024/02/03 04:21:09;;;;;;;8.68;2.47;;;11.80;99.90;;;;;;4265863;27;20053;-65
2024/02/03 04:23:11;;;;;;;9.75;2.40;;;11.80;99.90;;;;;;4265652;27;20043;-66
2024/02/03 04:25:13;;;;;;;10.88;1.98;;;11.80;99.90;;;;;;4265340;27;20043;-66
2024/02/03 04:27:17;;;;;;;10.65;2.83;;;11.90;99.90;;;;;;4265747;27;20046;-66
2024/02/03 04:29:19;;;;;;;10.05;1.95;;;11.80;99.90;;;;;;4265473;27;20382;-65
2024/02/03 04:31:22;;;;;;;12.35;2.55;;;11.90;99.90;;;;;;4265208;27;20504;-66
2024/02/03 04:33:24;;;;;;;9.18;1.98;;;11.90;99.90;;;;;;4265601;27;20107;-66
2024/02/03 04:35:27;;;;;;;12.18;2.60;;;11.80;99.90;;;;;;4265348;27;20065;-66
2024/02/03 04:37:29;;;;;;;11.75;2.40;;;11.80;99.90;;;;;;4265128;27;20051;-66
2024/02/03 04:39:31;;;;;;;14.25;2.97;;;11.90;99.90;;;;;;4265159;27;20506;-66
2024/02/03 04:41:33;;;;;;;11.38;2.20;;;11.70;99.90;;;;;;4265219;27;20091;-66
2024/02/03 04:43:35;;;;;;;10.40;2.28;;;11.70;99.90;;;;;;4265268;27;20038;-66
2024/02/03 04:45:37;;;;;;;9.77;2.53;;;11.80;99.90;;;;;;4246920;27;20501;-66
2024/02/03 04:47:41;;;;;;;11.80;2.60;;;11.80;99.90;;;;;;4265205;27;20073;-66
2024/02/03 04:49:43;;;;;;;7.72;2.33;;;11.70;99.90;;;;;;4265221;27;20043;-66
2024/02/03 04:51:45;;;;;;;5.22;1.48;;;11.80;99.90;;;;;;4265136;27;20042;-66
2024/02/03 04:53:47;;;;;;;16.05;2.53;;;11.80;99.90;;;;;;4264572;27;20058;-65
2024/02/03 04:55:49;;;;;;;9.68;2.35;;;11.80;99.90;;;;;;4265267;27;20468;-67
2024/02/03 04:57:51;;;;;;;9.27;2.33;;;11.80;99.90;;;;;;4265222;27;20394;-66
2024/02/03 04:59:53;;;;;;;15.95;2.15;;;11.70;99.90;;;;;;4265228;27;20043;-66
2024/02/03 05:01:55;;;;;;;12.38;2.20;;;11.60;99.90;;;;;;4265272;27;20062;-66
2024/02/03 05:03:59;;;;;;;9.27;1.90;;;11.70;99.90;;;;;;4265029;27;20050;-66
2024/02/03 05:06:02;;;;;;;6.25;1.73;;;11.70;99.90;;;;;;4265070;27;20049;-65
2024/02/03 05:08:05;;;;;;;7.50;1.60;;;11.70;99.90;;;;;;4246605;27;20057;-66
2024/02/03 05:10:07;;;;;;;11.55;2.67;;;11.80;99.90;;;;;;4264866;27;20401;-66
2024/02/03 05:12:09;;;;;;;7.68;2.00;;;11.80;99.90;;;;;;4265076;27;20130;-66
2024/02/03 05:14:11;;;;;;;10.93;2.55;;;11.70;99.90;;;;;;4265222;27;20042;-66
2024/02/03 05:16:14;;;;;;;8.45;2.22;;;11.80;99.90;;;;;;4265097;27;20061;-66
2024/02/03 05:18:15;;;;;;;7.30;2.03;;;11.80;99.90;;;;;;4264788;27;20053;-66
2024/02/03 05:20:19;;;;;;;10.95;2.33;;;11.80;99.90;;;;;;4265022;27;20053;-66
2024/02/03 05:22:21;;;;;;;10.63;1.90;;;11.80;99.90;;;;;;4264598;27;20402;-65
2024/02/03 05:24:23;;;;;;;9.30;1.70;;;11.70;99.90;;;;;;4264964;27;20049;-66
2024/02/03 05:26:26;;;;;;;11.80;2.30;;;11.80;99.90;;;;;;4264977;27;20038;-66
2024/02/03 05:28:28;;;;;;;9.68;2.15;;;11.70;99.90;;;;;;4246611;27;20134;-65
2024/02/03 05:30:30;;;;;;;15.43;2.35;;;11.80;99.90;;;;;;4264749;27;20524;-66
2024/02/03 05:32:32;;;;;;;9.82;2.22;;;11.70;99.90;;;;;;4265036;27;20042;-65
2024/02/03 05:34:34;;;;;;;13.25;2.10;;;11.80;99.90;;;;;;4264949;27;20069;-69
2024/02/03 05:36:37;;;;;;;8.75;2.20;;;11.80;99.90;;;;;;4264561;27;20216;-66
2024/02/03 05:38:39;;;;;;;12.18;2.17;;;11.80;99.90;;;;;;4264832;27;20047;-67
2024/02/03 05:40:41;;;;;;;6.22;1.85;;;11.80;99.90;;;;;;4246672;28;20043;-65
2024/02/03 05:42:43;;;;;;;9.15;1.85;;;11.90;99.90;;;;;;4249015;27;20130;-67
2024/02/03 05:44:46;;;;;;;9.55;1.92;;;11.90;99.90;;;;;;4269460;27;20046;-67
2024/02/03 05:46:48;;;;;;;9.77;1.90;;;11.80;99.90;;;;;;4268418;27;20087;-66
2024/02/03 05:48:50;;;;;;;4.80;1.77;;;11.90;99.90;;;;;;4268121;27;20042;-66
2024/02/03 05:50:52;;;;;;;9.68;2.35;;;11.90;99.90;;;;;;4268280;27;20054;-66
2024/02/03 05:52:56;;;;;;;14.25;2.08;;;11.90;99.90;;;;;;4268094;27;20400;-66
2024/02/03 05:54:58;;;;;;;12.20;2.00;;;11.90;99.90;;;;;;4268096;27;20140;-67
2024/02/03 05:57:00;;;;;;;10.98;1.60;;;11.90;99.90;;;;;;4267992;27;20053;-66
2024/02/03 05:59:02;;;;;;;13.63;2.53;;;11.80;99.90;;;;;;4268074;27;20046;-66
2024/02/03 06:01:24;;;;;;;9.60;2.00;;;11.80;99.90;;;;;;4253308;27;20043;-68
2024/02/03 06:03:26;;;;;;;7.38;2.10;;;11.80;99.90;;;;;;4269392;27;20084;-67
2024/02/03 06:05:28;;;;;;;12.57;2.80;;;11.80;99.90;;;;;;4269632;27;20379;-68
2024/02/03 06:07:30;;;;;;;10.57;2.10;;;11.80;99.90;;;;;;4268337;27;20123;-66
2024/02/03 06:09:34;;;;;;;8.27;1.60;;;11.80;99.90;;;;;;4267625;27;20049;-66
2024/02/03 06:11:36;;;;;;;8.25;2.17;;;11.80;99.90;;;;;;4249332;27;20047;-66
2024/02/03 06:13:38;;;;;;;5.88;2.03;;;11.80;99.90;;;;;;4267853;27;20047;-66
2024/02/03 06:15:40;;;;;;;6.15;1.90;;;11.80;99.90;;;;;;4267823;27;20413;-66
2024/02/03 06:17:44;;;;;;;11.77;2.47;;;11.80;99.90;;;;;;4267789;27;20081;-67
2024/02/03 06:19:46;;;;;;;13.02;2.30;;;11.80;99.90;;;;;;4267510;27;20482;-66
2024/02/03 06:21:48;;;;;;;10.27;1.98;;;11.70;99.90;;;;;;4267521;27;20115;-64
2024/02/03 06:23:51;;;;;;;9.75;2.00;;;11.70;99.90;;;;;;4267591;27;20047;-64
2024/02/03 06:25:54;;;;;;;8.85;1.92;;;11.70;99.90;;;;;;4267558;27;20069;-64
2024/02/03 06:27:56;;;;;;;7.93;1.80;;;11.70;99.90;;;;;;4267601;27;20127;-64
2024/02/03 06:29:58;;;;;;;8.23;1.90;;;11.70;99.90;;;;;;4267650;27;20486;-65
2024/02/03 06:32:00;;;;;;;10.75;1.67;;;11.80;99.90;;;;;;4267315;27;20408;-64
2024/02/03 06:34:02;;;;;;;8.07;1.95;;;11.80;99.90;;;;;;4267405;27;20045;-65
2024/02/03 06:36:06;;;;;;;12.70;2.40;;;11.70;99.90;;;;;;4266937;27;20466;-66
2024/02/03 06:38:10;;;;;;;9.38;2.03;;;11.80;99.90;;;;;;4267418;27;20481;-66
2024/02/03 06:40:12;;;;;;;6.90;1.83;;;11.70;99.90;;;;;;4267523;27;20074;-67
2024/02/03 06:42:15;;;;;;;9.35;2.08;;;11.60;99.90;;;;;;4267602;27;20043;-66
2024/02/03 06:44:18;;;;;;;6.75;1.65;;;11.70;99.90;;;;;;4267239;27;20070;-66
2024/02/03 06:46:20;;;;;;;9.75;1.90;;;11.70;99.90;;;;;;4267397;27;20089;-66
2024/02/03 06:48:22;;;;;;;14.30;2.45;;;11.70;99.90;;;;;;4267291;27;20070;-66
2024/02/03 06:50:24;;;;;;;5.78;1.90;;;11.70;99.90;;;;;;4267177;27;20410;-66
2024/02/03 06:52:26;;;;;;;6.65;1.70;;;11.70;99.90;;;;;;4266970;27;20046;-67
2024/02/03 06:54:28;;;;;;;7.10;1.95;;;11.70;99.90;;;;;;4266332;27;20059;-66
2024/02/03 06:56:30;;;;;;;6.22;1.92;;;11.70;99.90;;;;;;4267173;27;20046;-69
2024/02/03 06:58:34;;;;;;;4.57;1.83;;;11.60;99.90;;;;;;4267096;27;20043;-66
2024/02/03 07:00:36;;;;;;;6.45;1.30;;;11.60;99.90;;;;;;4267136;27;20046;-68
2024/02/03 07:02:38;;;;;;;8.27;1.60;;;11.60;99.90;;;;;;4267244;27;20093;-68
2024/02/03 07:04:40;;;;;;;8.30;1.55;;;11.60;99.90;;;;;;4267590;27;20148;-68
2024/02/03 07:06:42;;;;;;;6.78;1.95;;;11.50;99.90;;;;;;4268010;27;20412;-69
2024/02/03 07:08:44;;;;;;;8.82;1.45;;;11.50;99.90;;;;;;4267462;27;20069;-67
2024/02/03 07:10:50;;;;;;;5.93;1.80;;;11.60;99.90;;;;;;4266882;27;20047;-67
2024/02/03 07:12:52;;;;;;;7.95;1.33;;;11.70;99.90;;;;;;4266833;27;20096;-67
2024/02/03 07:14:57;;;;;;;5.30;1.38;;;11.60;99.90;;;;;;4267108;27;20053;-67
2024/02/03 07:16:59;;;;;;;7.18;1.23;;;11.60;99.90;;;;;;4266694;27;20039;-67
2024/02/03 07:19:04;;;;;;;5.20;1.17;;;11.60;99.90;;;;;;4266271;27;20051;-67
2024/02/03 07:21:06;;;;;;;4.18;1.27;;;11.50;99.90;;;;;;4266903;27;20072;-67
2024/02/03 07:23:08;;;;;;;5.38;1.38;;;11.50;99.90;;;;;;4266720;27;20401;-67
2024/02/03 07:25:12;;;;;;;8.40;1.20;;;11.40;99.90;;;;;;4266559;27;20042;-67
2024/02/03 07:27:15;;;;;;;5.32;0.88;;;11.50;99.90;;;;;;4266484;27;20046;-66
2024/02/03 07:29:17;;;;;;;4.78;1.33;;;11.60;99.90;;;;;;4266461;27;20043;-66
2024/02/03 07:31:28;;;;;;;4.20;0.90;;;11.70;99.90;;;;;;4266655;27;20538;-68
2024/02/03 07:33:30;;;;;;;6.68;1.25;;;11.60;99.90;;;;;;4266147;27;20520;-66
2024/02/03 07:35:32;;;;;;;7.53;1.25;;;11.50;99.90;;;;;;4266456;27;20043;-67
2024/02/03 07:37:35;;;;;;;3.80;0.90;;;11.50;99.90;;;;;;4249131;27;20126;-66
2024/02/03 07:39:37;;;;;;;7.70;1.08;;;11.60;99.90;;;;;;4249478;27;20051;-68
2024/02/03 07:41:39;;;;;;;5.82;1.13;;;11.50;99.90;;;;;;4249210;27;20059;-67
2024/02/03 07:43:41;;;;;;;5.47;1.70;;;11.60;99.90;;;;;;4249340;27;20055;-67
2024/02/03 07:45:43;;;;;;;3.58;1.00;;;11.60;99.90;;;;;;4249150;27;20045;-66
2024/02/03 07:47:47;;;;;;;5.43;1.55;;;11.60;99.90;;;;;;4249014;27;20494;-67
2024/02/03 07:49:49;;;;;;;3.63;1.27;;;11.70;99.90;;;;;;4264915;27;20042;-67
2024/02/03 07:51:51;;;;;;;3.70;1.23;;;11.70;99.90;;;;;;4266326;27;20096;-66
2024/02/03 07:53:53;;;;;;;4.78;1.10;;;11.70;99.90;;;;;;4266004;27;20125;-66
2024/02/03 07:55:56;;;;;;;5.35;1.00;;;11.80;99.90;;;;;;4266271;27;20591;-67
2024/02/03 07:57:58;;;;;;;2.33;1.02;;;11.80;99.90;;;;;;4266466;27;20099;-66
2024/02/03 08:00:00;;;;;;;4.63;1.30;;;11.70;99.90;;;;;;4266910;27;20118;-67
2024/02/03 08:02:03;;;;;;;4.57;1.58;;;11.70;99.90;;;;;;4266211;27;20099;-67
2024/02/03 08:04:06;;;;;;;1.63;0.82;;;11.70;99.90;;;;;;4266686;27;20042;-67
2024/02/03 08:06:08;;;;;;;4.72;1.10;;;11.70;99.90;;;;;;4265620;27;20489;-67
2024/02/03 08:08:11;;;;;;;5.35;1.35;;;11.70;99.90;;;;;;4266350;27;20043;-66
2024/02/03 08:10:13;;;;;;;3.10;0.90;;;11.80;99.90;;;;;;4266051;27;20087;-66
2024/02/03 08:12:15;;;;;;;3.28;1.13;;;11.90;99.90;;;;;;4265945;27;20126;-66
2024/02/03 08:14:17;;;;;;;4.53;0.85;;;11.80;99.90;;;;;;4265814;27;20046;-66
2024/02/03 08:16:19;;;;;;;5.78;1.10;;;11.80;99.90;;;;;;4265407;27;20070;-66
2024/02/03 08:18:21;;;;;;;3.70;1.10;;;11.90;99.90;;;;;;4247286;27;20493;-65
2024/02/03 08:20:25;;;;;;;2.53;1.10;;;11.90;99.90;;;;;;4265769;27;20397;-67
2024/02/03 08:22:27;;;;;;;5.20;0.95;;;11.90;99.90;;;;;;4265766;27;20042;-65
2024/02/03 08:24:29;;;;;;;3.28;0.70;;;11.80;99.90;;;;;;4265851;27;20129;-66
2024/02/03 08:26:31;;;;;;;2.42;0.82;;;11.80;99.90;;;;;;4265454;27;20043;-66
2024/02/03 08:28:34;;;;;;;2.53;0.80;;;11.70;99.90;;;;;;4265670;27;20073;-69
2024/02/03 08:30:37;;;;;;;4.15;0.85;;;11.70;99.90;;;;;;4265934;27;20576;-65
2024/02/03 08:32:39;;;;;;;6.32;1.20;;;11.80;99.90;;;;;;4265609;27;20055;-66
2024/02/03 08:34:41;;;;;;;3.72;0.80;;;11.70;99.90;;;;;;4265620;27;20054;-66
2024/02/03 08:37:06;;;;;;;5.25;1.10;;;11.80;99.90;;;;;;4265333;27;20042;-65
2024/02/03 08:39:08;;;;;;;1.23;0.52;;;11.70;99.90;;;;;;4265641;27;20075;-65
2024/02/03 08:41:12;;;;;;;5.63;0.85;;;11.70;99.90;;;;;;4265523;27;20066;-65
2024/02/03 08:43:17;;;;;;;2.47;0.95;;;11.90;99.90;;;;;;4265688;27;20062;-66
2024/02/03 08:45:19;;;;;;;2.30;1.00;;;11.90;99.90;;;;;;4265300;27;20046;-68
2024/02/03 08:47:21;;;;;;;4.78;0.98;;;11.90;99.90;;;;;;4265499;27;20066;-66
2024/02/03 08:49:23;;;;;;;2.47;0.85;;;11.90;99.90;;;;;;4265111;27;20125;-66
2024/02/03 08:51:26;;;;;;;3.92;0.82;;;12.00;99.90;;;;;;4265196;27;20119;-68
2024/02/03 08:53:29;;;;;;;4.68;1.10;;;12.00;99.90;;;;;;4265074;27;20050;-66
2024/02/03 08:55:32;;;;;;;2.92;0.88;;;12.00;99.90;;;;;;4246717;27;20070;-66
2024/02/03 08:57:34;;;;;;;5.70;1.00;;;12.00;99.90;;;;;;4265246;27;20153;-66
2024/02/03 08:59:36;;;;;;;4.10;1.20;;;12.00;99.90;;;;;;4264748;27;20134;-66
2024/02/03 09:01:38;;;;;;;2.40;1.20;;;12.00;99.90;;;;;;4264943;27;20046;-66
2024/02/03 09:03:40;;;;;;;5.50;1.30;;;11.90;99.90;;;;;;4264910;27;20127;-66
2024/02/03 09:05:42;;;;;;;2.70;1.40;;;12.00;99.90;;;;;;4265036;27;20114;-66
2024/02/03 09:07:45;;;;;;;3.13;1.00;;;12.00;99.90;;;;;;4264930;27;20039;-66
2024/02/03 09:09:48;;;;;;;2.25;0.93;;;12.00;99.90;;;;;;4264986;27;20117;-66
2024/02/03 09:11:51;;;;;;;4.47;1.10;;;12.00;99.90;;;;;;4265106;27;20057;-66
2024/02/03 09:13:53;;;;;;;2.70;0.85;;;11.90;99.90;;;;;;4264748;27;20062;-66
2024/02/03 09:15:55;;;;;;;1.48;0.98;;;12.00;99.90;;;;;;4264519;27;20043;-66
2024/02/03 09:17:57;;;;;;;3.00;1.10;;;12.10;99.90;;;;;;4264985;27;20054;-66
2024/02/03 09:19:59;;;;;;;3.47;1.00;;;12.10;99.90;;;;;;4264720;27;20099;-66
2024/02/03 09:22:01;;;;;;;3.45;1.30;;;12.10;99.90;;;;;;4246451;27;20058;-66
2024/02/03 09:24:04;;;;;;;1.90;1.05;;;12.10;99.90;;;;;;4265047;27;20119;-66
2024/02/03 09:26:08;;;;;;;2.58;1.00;;;12.20;99.90;;;;;;4264742;27;20046;-66
2024/02/03 09:28:11;;;;;;;3.47;1.00;;;12.20;99.90;;;;;;4264916;27;20043;-66
2024/02/03 09:30:13;;;;;;;3.00;1.10;;;12.10;99.90;;;;;;4264458;27;20038;-66
2024/02/03 09:32:15;;;;;;;3.58;0.90;;;12.10;99.90;;;;;;4264765;27;20049;-66
2024/02/03 09:34:17;;;;;;;2.15;1.20;;;12.10;99.90;;;;;;4264773;27;20565;-66
2024/02/03 09:36:19;;;;;;;3.25;1.60;;;12.00;99.90;;;;;;4264691;27;20047;-66
2024/02/03 09:38:21;;;;;;;3.20;1.10;;;12.00;99.90;;;;;;4264477;27;20051;-66
2024/02/03 09:40:24;;;;;;;1.92;1.05;;;12.10;99.90;;;;;;4264731;27;20047;-66
2024/02/03 09:42:27;;;;;;;2.13;1.17;;;12.20;99.90;;;;;;4246508;28;20518;-66
2024/02/03 09:44:30;;;;;;;3.70;0.77;;;12.10;99.90;;;;;;4264373;27;20042;-66
2024/02/03 09:46:32;;;;;;;5.72;0.98;;;12.10;99.90;;;;;;4264646;27;20050;-66
2024/02/03 09:48:34;;;;;;;2.33;0.93;;;12.10;99.90;;;;;;4264611;27;20050;-67
2024/02/03 09:50:38;;;;;;;1.95;0.85;;;12.20;99.90;;;;;;4264479;27;20172;-67
2024/02/03 09:52:42;;;;;;;1.92;1.05;;;12.20;99.90;;;;;;4264670;27;20086;-66
2024/02/03 09:54:45;;;;;;;4.43;1.20;;;12.30;99.90;;;;;;4264535;27;20053;-66
2024/02/03 09:56:48;;;;;;;3.33;1.08;;;12.20;99.90;;;;;;4264573;27;20047;-65
2024/02/03 09:58:51;;;;;;;3.10;1.30;;;12.30;99.90;;;;;;4264357;27;20497;-66
2024/02/03 10:00:54;;;;;;;2.50;1.20;;;12.30;99.90;;;;;;4264498;27;20441;-67
2024/02/03 10:02:56;;;;;;;2.92;1.15;;;12.20;99.90;;;;;;4265481;27;20099;-68
2024/02/03 10:04:58;;;;;;;1.88;1.02;;;12.20;99.90;;;;;;4265832;27;20061;-72
2024/02/03 10:07:02;;;;;;;3.50;0.90;;;12.30;99.90;;;;;;4265798;27;20236;-70
2024/02/03 10:09:04;;;;;;;2.85;0.82;;;12.20;99.90;;;;;;4257789;27;20050;-70
2024/02/03 10:11:07;;;;;;;4.15;0.90;;;12.40;99.90;;;;;;4248085;27;20469;-68
2024/02/03 10:13:11;;;;;;;3.85;0.85;;;12.60;99.90;;;;;;4258455;27;20099;-66
2024/02/03 10:15:15;;;;;;;2.45;1.00;;;12.70;99.90;;;;;;4248754;27;20088;-66
2024/02/03 10:17:23;;;;;;;4.25;1.10;;;12.70;99.90;;;;;;4253656;27;20047;-67
2024/02/03 10:19:25;;;;;;;6.55;1.27;;;12.80;99.90;;;;;;4257380;27;20405;-66
2024/02/03 10:21:27;;;;;;;1.58;1.00;;;12.80;99.90;;;;;;4263915;27;20059;-65
2024/02/03 10:23:30;;;;;;;1.88;1.00;;;12.80;99.90;;;;;;4264080;27;20035;-66
2024/02/03 10:25:33;;;;;;;2.97;1.00;;;12.80;99.90;;;;;;4264056;27;20099;-65
2024/02/03 10:27:35;;;;;;;2.47;1.13;;;12.80;99.90;;;;;;4263916;27;20374;-65
2024/02/03 10:29:37;;;;;;;4.47;1.10;;;12.90;99.90;;;;;;4248670;27;20043;-67
2024/02/03 10:31:47;;;;;;;3.92;1.10;;;12.80;99.90;;;;;;4267378;27;20125;-65
2024/02/03 10:33:50;;;;;;;2.85;0.90;;;12.90;99.90;;;;;;4267368;27;20454;-66
2024/02/03 10:35:52;;;;;;;2.92;1.05;;;12.80;99.90;;;;;;4264812;27;20054;-66
2024/02/03 10:37:54;;;;;;;1.77;0.90;;;12.70;99.90;;;;;;4250402;27;20120;-71